Time;durP1;ratioP1;P1;durP2;ratioP2;P2;SDS_P1;SDS_P2;PMS_P1;PMS_P2;Temp;Humidity;BMP_temperature;BMP_pressure;BME280_temperature;BME280_humidity;BME280_pressure;Samples;Min_cycle;Max_cycle;Signal;HPM_P1;HPM_P2
2023/04/14 00:01:15;;;;;;;13.38;8.70;;;;;;;5.86;64.69;99739.22;10559978;28;20052;-82
2023/04/14 00:06:19;;;;;;;13.55;9.13;;;;;;;5.86;64.70;99739.22;10566671;28;20595;-80
2023/04/14 00:11:22;;;;;;;15.40;8.93;;;;;;;5.87;64.70;99732.06;10531609;28;20040;-80
2023/04/14 00:16:24;;;;;;;12.75;8.38;;;;;;;5.86;64.80;99739.22;10568958;28;20039;-80
2023/04/14 00:21:30;;;;;;;11.30;7.97;;;;;;;5.83;64.82;99739.47;10579506;28;20054;-79
2023/04/14 00:26:33;;;;;;;14.45;8.13;;;;;;;5.88;64.92;99747.97;10564274;28;20040;-81
2023/04/14 00:31:36;;;;;;;17.10;8.60;;;;;;;5.87;64.73;99753.41;10573213;28;20047;-81
2023/04/14 00:36:40;;;;;;;14.50;7.97;;;;;;;5.73;65.05;99765.03;10575102;28;20485;-80
2023/04/14 00:41:43;;;;;;;17.70;8.77;;;;;;;5.73;65.66;99757.06;10562762;28;20055;-80
2023/04/14 00:46:46;;;;;;;12.00;7.88;;;;;;;5.73;65.86;99757.06;10556698;28;20040;-80
2023/04/14 00:51:51;;;;;;;17.50;10.35;;;;;;;5.69;66.12;99761.75;10560153;28;20060;-80
2023/04/14 00:56:56;;;;;;;16.90;8.20;;;;;;;5.66;66.20;99761.97;10562608;28;20048;-80
2023/04/14 01:02:00;;;;;;;18.08;8.25;;;;;;;5.62;66.28;99756.97;10571565;28;20063;-81
2023/04/14 01:07:05;;;;;;;14.50;8.70;;;;;;;5.57;66.57;99762.63;10581896;28;20048;-80
2023/04/14 01:12:21;;;;;;;16.67;8.68;;;;;;;5.49;66.87;99764.97;10563980;28;20666;-83
2023/04/14 01:17:32;;;;;;;17.88;8.45;;;;;;;5.47;67.07;99770.41;10571280;28;20049;-83
2023/04/14 01:22:47;;;;;;;14.93;7.78;;;;;;;5.46;67.01;99778.50;10569142;28;20040;-82
2023/04/14 01:28:04;;;;;;;15.10;8.48;;;;;;;4.38;68.54;99800.75;10579331;28;20046;-82
2023/04/14 01:33:13;;;;;;;14.70;9.15;;;;;;;4.45;68.84;99796.78;10536686;28;20048;-83
2023/04/14 01:38:21;;;;;;;15.48;9.05;;;;;;;4.56;68.41;99786.28;10575351;28;20048;-83
2023/04/14 01:43:30;;;;;;;13.13;9.27;;;;;;;4.14;69.13;99784.56;10560820;28;20147;-82
2023/04/14 01:48:35;;;;;;;14.43;9.93;;;;;;;4.29;69.21;99772.13;10575825;28;20078;-81
2023/04/14 01:53:43;;;;;;;16.45;9.80;;;;;;;4.37;69.15;99772.47;10563910;28;20091;-82
2023/04/14 01:58:49;;;;;;;16.38;9.93;;;;;;;4.50;69.12;99777.84;10511429;28;20049;-83
2023/04/14 02:03:53;;;;;;;15.90;9.95;;;;;;;4.54;68.71;99782.00;10569349;28;20036;-81
2023/04/14 02:08:59;;;;;;;17.20;10.55;;;;;;;4.41;68.30;99787.25;10581344;28;20040;-83
2023/04/14 02:14:03;;;;;;;18.02;9.93;;;;;;;4.14;68.18;99784.56;10564850;28;20046;-83
2023/04/14 02:19:09;;;;;;;15.13;10.30;;;;;;;4.02;68.83;99780.91;10574406;28;20093;-83
2023/04/14 02:24:12;;;;;;;17.00;10.43;;;;;;;4.06;69.30;99787.75;10567977;28;20143;-82
2023/04/14 02:29:19;;;;;;;16.42;10.40;;;;;;;4.20;69.34;99789.53;10551112;28;20415;-82
2023/04/14 02:34:28;;;;;;;17.05;10.18;;;;;;;4.32;69.78;99788.72;10571001;28;20051;-83
2023/04/14 02:39:37;;;;;;;15.23;10.15;;;;;;;4.49;69.44;99781.47;10578945;28;20052;-82
2023/04/14 02:44:45;;;;;;;16.02;10.05;;;;;;;4.45;69.11;99794.09;10578843;27;20055;-82
2023/04/14 02:49:52;;;;;;;15.15;9.50;;;;;;;4.39;69.56;99795.38;10586694;28;20043;-82
2023/04/14 02:54:59;;;;;;;14.40;9.35;;;;;;;3.94;69.94;99796.47;10543300;28;20043;-82
2023/04/14 03:00:04;;;;;;;17.67;9.98;;;;;;;3.84;70.62;99801.53;10568295;28;20080;-82
2023/04/14 03:05:17;;;;;;;18.25;11.45;;;;;;;3.98;70.95;99805.97;10568171;28;20100;-82
2023/04/14 03:10:31;;;;;;;19.65;10.90;;;;;;;4.01;70.84;99811.09;10587388;28;20062;-81
2023/04/14 03:15:36;;;;;;;20.48;11.60;;;;;;;3.91;70.87;99832.06;10587471;28;20048;-81
2023/04/14 03:20:44;;;;;;;15.68;9.32;;;;;;;3.19;71.17;99836.44;10592961;28;20036;-83
2023/04/14 03:25:48;;;;;;;15.70;10.20;;;;;;;3.41;71.09;99821.88;10572403;28;20048;-83
2023/04/14 03:31:00;;;;;;;18.45;10.80;;;;;;;3.47;70.77;99824.16;10555115;28;20044;-82
2023/04/14 03:36:12;;;;;;;25.00;13.38;;;;;;;3.59;71.51;99826.06;10564873;28;20054;-81
2023/04/14 03:41:19;;;;;;;25.00;11.55;;;;;;;3.78;71.75;99828.47;10575336;28;20071;-82
2023/04/14 03:46:25;;;;;;;18.90;11.35;;;;;;;3.70;71.29;99839.56;10558250;28;20050;-81
2023/04/14 03:51:32;;;;;;;17.25;11.40;;;;;;;3.63;71.09;99821.44;10575360;28;20391;-82
2023/04/14 03:56:37;;;;;;;19.30;10.88;;;;;;;3.73;71.35;99831.41;10571583;28;20143;-82
2023/04/14 04:01:41;;;;;;;21.80;12.35;;;;;;;3.85;71.29;99836.91;10563146;28;20071;-81
2023/04/14 04:06:48;;;;;;;20.38;11.48;;;;;;;3.91;71.16;99832.06;10587524;28;20119;-82
2023/04/14 04:11:53;;;;;;;14.90;10.07;;;;;;;3.83;70.83;99834.34;10569496;28;20055;-81
2023/04/14 04:17:00;;;;;;;18.55;10.80;;;;;;;3.83;70.84;99841.47;10582825;28;20422;-81
2023/04/14 04:22:05;;;;;;;15.32;10.10;;;;;;;3.73;70.43;99839.38;10564236;28;20139;-80
2023/04/14 04:27:09;;;;;;;20.27;9.88;;;;;;;3.57;69.95;99837.75;10543001;28;20402;-81
2023/04/14 04:32:30;;;;;;;16.20;11.18;;;;;;;3.40;70.19;99846.72;10573157;28;20044;-81
2023/04/14 04:37:35;;;;;;;17.25;10.90;;;;;;;3.53;70.63;99847.69;10563138;28;20096;-81
2023/04/14 04:42:41;;;;;;;17.90;10.50;;;;;;;3.58;70.51;99840.31;10571323;28;20490;-81
2023/04/14 04:47:47;;;;;;;18.00;10.75;;;;;;;3.66;70.63;99845.16;10577926;28;20050;-81
2023/04/14 04:52:52;;;;;;;18.00;10.02;;;;;;;3.64;70.25;99861.19;10583772;28;20039;-80
2023/04/14 04:57:54;;;;;;;15.48;10.00;;;;;;;3.63;70.29;99858.63;10560323;28;20044;-80
2023/04/14 05:02:58;;;;;;;17.95;10.43;;;;;;;3.70;70.26;99854.63;10544087;28;20131;-81
2023/04/14 05:08:03;;;;;;;19.52;11.65;;;;;;;3.72;70.43;99863.38;10565047;28;20458;-80
2023/04/14 05:13:06;;;;;;;18.55;12.45;;;;;;;3.73;70.65;99850.00;10581087;28;20588;-81
2023/04/14 05:18:08;;;;;;;16.45;10.98;;;;;;;3.76;70.42;99854.28;10574328;28;20047;-81
2023/04/14 05:23:13;;;;;;;21.38;11.52;;;;;;;3.70;70.53;99855.50;10525297;28;20051;-81
2023/04/14 05:28:15;;;;;;;21.50;12.13;;;;;;;3.69;70.55;99856.44;10602920;28;20048;-81
2023/04/14 05:33:19;;;;;;;20.33;13.40;;;;;;;3.80;71.30;99863.75;10591731;28;20093;-81
2023/04/14 05:38:23;;;;;;;19.65;11.90;;;;;;;3.89;71.33;99870.31;10590627;28;20067;-81
2023/04/14 05:43:26;;;;;;;18.92;11.95;;;;;;;3.98;71.73;99864.44;10577734;28;20452;-80
2023/04/14 05:48:29;;;;;;;19.63;12.73;;;;;;;4.09;71.87;99871.75;10571951;28;20539;-82
2023/04/14 05:53:34;;;;;;;18.33;11.50;;;;;;;4.26;72.07;99863.56;10558914;28;20123;-82
2023/04/14 05:58:37;;;;;;;20.00;12.38;;;;;;;4.60;71.80;99861.41;10558729;28;20044;-81
2023/04/14 06:03:40;;;;;;;21.65;10.82;;;;;;;4.87;71.07;99864.09;10564591;28;20058;-81
2023/04/14 06:08:44;;;;;;;6.85;2.47;;;;;;;5.06;70.65;99864.59;10570235;28;20055;-81
2023/04/14 06:13:47;;;;;;;29.00;15.00;;;;;;;5.43;71.17;99861.28;10560906;28;20499;-81
2023/04/14 06:18:50;;;;;;;18.92;10.73;;;;;;;5.79;70.05;99867.69;10559425;28;20072;-81
2023/04/14 06:23:54;;;;;;;11.20;6.78;;;;;;;6.12;69.11;99860.03;10564549;28;20097;-81
2023/04/14 06:28:58;;;;;;;13.35;8.50;;;;;;;6.48;67.72;99863.69;10557442;28;20046;-81
2023/04/14 06:34:01;;;;;;;8.52;6.70;;;;;;;6.73;67.34;99857.41;10564691;28;20052;-82
2023/04/14 06:39:05;;;;;;;11.73;7.40;;;;;;;6.74;66.44;99860.94;10515804;28;20199;-81
2023/04/14 06:44:08;;;;;;;14.40;7.50;;;;;;;7.17;65.91;99857.78;10512925;28;20464;-81
2023/04/14 06:49:11;;;;;;;12.52;7.70;;;;;;;7.55;64.26;99854.03;10520540;27;20430;-81
2023/04/14 06:54:16;;;;;;;11.05;6.85;;;;;;;7.94;62.81;99869.63;10543527;27;20461;-81
2023/04/14 06:59:19;;;;;;;17.05;6.32;;;;;;;8.31;62.40;99853.38;10526657;27;20040;-82
2023/04/14 07:04:22;;;;;;;11.13;7.03;;;;;;;8.56;61.27;99859.47;10518180;27;20050;-81
2023/04/14 07:09:28;;;;;;;12.90;7.03;;;;;;;8.89;60.89;99863.03;10516390;27;20044;-81
2023/04/14 07:14:32;;;;;;;13.18;6.55;;;;;;;9.11;59.62;99862.97;10506091;28;20194;-81
2023/04/14 07:19:35;;;;;;;11.32;7.55;;;;;;;9.47;58.75;99860.84;10533269;27;20052;-81
2023/04/14 07:24:39;;;;;;;11.45;6.80;;;;;;;9.85;57.90;99864.75;10490808;27;20528;-81
2023/04/14 07:29:42;;;;;;;16.77;7.20;;;;;;;10.10;55.30;99863.50;10507743;27;21184;-81
2023/04/14 07:34:45;;;;;;;10.43;5.65;;;;;;;9.93;54.50;99857.78;10482667;27;20687;-81
2023/04/14 07:39:49;;;;;;;11.73;6.43;;;;;;;10.27;53.80;99862.03;10511106;28;20065;-81
2023/04/14 07:44:52;;;;;;;15.20;6.70;;;;;;;10.27;53.50;99857.50;10527032;27;20069;-81
2023/04/14 07:49:57;;;;;;;13.05;6.57;;;;;;;10.18;53.02;99863.69;10529091;27;20088;-81
2023/04/14 07:55:01;;;;;;;12.60;6.65;;;;;;;9.68;55.05;99864.38;10510692;27;20050;-81
2023/04/14 08:00:04;;;;;;;18.15;7.57;;;;;;;10.52;53.74;99858.84;10518232;27;20134;-81
2023/04/14 08:05:14;;;;;;;13.02;6.60;;;;;;;10.50;52.02;99860.81;10509106;27;20890;-81
2023/04/14 08:10:18;;;;;;;13.23;6.68;;;;;;;11.27;51.17;99848.53;10494336;27;20044;-81
2023/04/14 08:15:21;;;;;;;14.45;6.20;;;;;;;11.16;49.97;99862.09;10525039;27;20115;-81
2023/04/14 08:20:24;;;;;;;15.30;8.23;;;;;;;11.37;50.37;99859.28;10545194;27;20544;-80
2023/04/14 08:25:28;;;;;;;21.30;7.47;;;;;;;12.46;48.15;99851.66;10531393;27;20047;-80
2023/04/14 08:30:31;;;;;;;15.45;6.47;;;;;;;13.74;44.07;99839.75;10521426;27;21234;-81
2023/04/14 08:35:35;;;;;;;11.00;5.45;;;;;;;16.00;41.97;99841.56;10506821;27;20054;-80
2023/04/14 08:40:48;;;;;;;18.73;8.13;;;;;;;17.68;38.16;99836.56;10528051;27;20461;-81
2023/04/14 08:45:51;;;;;;;15.63;6.22;;;;;;;15.68;39.64;99847.88;10531731;27;20116;-81
2023/04/14 08:51:01;;;;;;;8.45;6.20;;;;;;;13.71;43.44;99855.28;10528464;27;20048;-81
2023/04/14 08:56:08;;;;;;;18.92;6.35;;;;;;;14.55;43.24;99848.34;10487927;27;20051;-81
2023/04/14 09:01:11;;;;;;;24.63;7.72;;;;;;;15.21;42.09;99845.81;10522421;27;20856;-80
2023/04/14 09:06:14;;;;;;;14.30;6.13;;;;;;;14.89;40.84;99841.19;10506207;27;20123;-81
2023/04/14 09:11:19;;;;;;;17.77;6.13;;;;;;;14.45;41.92;99841.38;10512874;27;20048;-81
2023/04/14 09:16:22;;;;;;;10.32;5.72;;;;;;;14.63;41.77;99836.72;10502364;27;20047;-81
2023/04/14 09:21:26;;;;;;;12.93;6.45;;;;;;;15.05;41.18;99835.81;10536003;27;20039;-80
2023/04/14 09:26:50;;;;;;;13.95;5.15;;;;;;;15.77;39.99;99827.91;10524684;27;20031;-82
2023/04/14 09:31:53;;;;;;;12.45;6.03;;;;;;;15.76;40.16;99828.91;10537717;27;20051;-80
2023/04/14 09:37:02;;;;;;;10.95;5.85;;;;;;;15.81;40.43;99822.97;10531361;27;20052;-81
2023/04/14 09:42:06;;;;;;;12.57;5.00;;;;;;;16.42;38.23;99826.03;10526728;27;20051;-81
2023/04/14 09:47:09;;;;;;;10.10;4.20;;;;;;;16.40;36.36;99825.38;10542133;27;20051;-80
2023/04/14 09:52:12;;;;;;;9.88;5.38;;;;;;;16.50;37.48;99816.00;10538885;27;20129;-81
2023/04/14 09:57:26;;;;;;;11.07;5.25;;;;;;;16.29;36.13;99813.91;10534728;27;20060;-82
2023/04/14 10:02:29;;;;;;;14.05;5.38;;;;;;;16.82;36.26;99808.72;10555369;27;20048;-82
2023/04/14 10:07:33;;;;;;;11.52;5.90;;;;;;;17.21;35.40;99802.38;10520123;27;20194;-81
2023/04/14 10:12:37;;;;;;;14.35;5.30;;;;;;;17.90;34.77;99788.66;10517515;27;20127;-80
2023/04/14 10:17:40;;;;;;;14.55;6.43;;;;;;;17.68;32.31;99783.09;10535274;27;20172;-79
2023/04/14 10:22:43;;;;;;;9.60;5.55;;;;;;;17.44;32.96;99780.63;10531165;27;20502;-79
2023/04/14 10:27:49;;;;;;;8.38;5.35;;;;;;;18.29;34.63;99777.53;10517986;27;20066;-79
2023/04/14 10:32:52;;;;;;;14.93;6.10;;;;;;;18.62;32.63;99768.06;10534888;27;20062;-79
2023/04/14 10:37:55;;;;;;;13.45;5.75;;;;;;;18.15;31.84;99770.22;10529622;27;20174;-79
2023/04/14 10:42:59;;;;;;;7.80;5.07;;;;;;;18.20;31.85;99764.22;10526236;27;20052;-79
2023/04/14 10:48:02;;;;;;;8.48;5.63;;;;;;;18.43;32.91;99756.78;10478303;28;20043;-79
2023/04/14 10:53:08;;;;;;;11.80;5.07;;;;;;;19.91;31.24;99749.75;10535402;27;20501;-79
2023/04/14 10:58:18;;;;;;;7.88;5.10;;;;;;;21.42;30.92;99745.00;10530539;27;20087;-79
2023/04/14 11:03:21;;;;;;;12.10;5.15;;;;;;;23.18;28.22;99743.94;10528446;27;20425;-79
2023/04/14 11:08:26;;;;;;;8.77;4.65;;;;;;;23.34;27.08;99744.41;10525956;27;20051;-80
2023/04/14 11:13:31;;;;;;;8.68;4.22;;;;;;;24.18;26.63;99729.25;10538500;27;20185;-79
2023/04/14 11:18:37;;;;;;;7.13;4.20;;;;;;;24.03;25.74;99728.81;10531555;27;21382;-80
2023/04/14 11:23:41;;;;;;;6.10;3.75;;;;;;;23.14;26.95;99731.72;10530636;27;20051;-80
2023/04/14 11:28:45;;;;;;;8.38;3.78;;;;;;;23.59;26.01;99714.28;10548356;27;20058;-79
2023/04/14 11:33:48;;;;;;;8.30;3.55;;;;;;;23.85;23.69;99715.91;10548822;27;20051;-80
2023/04/14 11:38:51;;;;;;;5.28;3.78;;;;;;;23.88;25.25;99712.72;10527296;27;21192;-79
2023/04/14 11:43:55;;;;;;;7.82;3.65;;;;;;;23.88;24.07;99719.03;10527200;27;20404;-79
2023/04/14 11:48:58;;;;;;;8.02;3.63;;;;;;;24.06;23.70;99704.50;10528500;27;20732;-79
2023/04/14 11:54:02;;;;;;;7.32;3.38;;;;;;;23.06;25.68;99703.75;10528623;27;20049;-79
2023/04/14 11:59:06;;;;;;;6.82;3.83;;;;;;;21.59;24.73;99698.94;10539796;27;20111;-80
2023/04/14 12:04:11;;;;;;;5.80;3.78;;;;;;;19.00;27.39;99697.97;10531045;27;20052;-80
2023/04/14 12:09:14;;;;;;;7.90;4.47;;;;;;;17.58;30.25;99708.34;10539020;27;20413;-80
2023/04/14 12:14:19;;;;;;;6.60;3.70;;;;;;;16.75;29.82;99710.09;10536551;27;20050;-79
2023/04/14 12:19:21;;;;;;;8.55;3.60;;;;;;;17.55;30.38;99692.44;10536671;27;20051;-80
2023/04/14 12:24:24;;;;;;;6.95;2.97;;;;;;;17.64;30.20;99703.03;10527420;27;20044;-80
2023/04/14 12:29:29;;;;;;;8.98;3.45;;;;;;;18.52;28.91;99697.69;10542716;27;20055;-80
2023/04/14 12:34:31;;;;;;;6.95;3.28;;;;;;;20.56;26.37;99676.63;10522677;27;20359;-79
2023/04/14 12:39:49;;;;;;;10.40;3.35;;;;;;;21.83;26.02;99675.59;10509988;28;20131;-80
2023/04/14 12:44:58;;;;;;;10.30;3.40;;;;;;;23.93;23.57;99660.78;10517195;27;20052;-80
2023/04/14 12:50:03;;;;;;;4.88;2.78;;;;;;;26.55;21.64;99655.00;10521186;27;20039;-81
2023/04/14 12:55:07;;;;;;;4.90;3.40;;;;;;;26.90;21.08;99652.03;10527926;27;20050;-80
2023/04/14 13:00:13;;;;;;;5.70;3.25;;;;;;;25.76;20.59;99647.34;10545638;27;20057;-80
2023/04/14 13:05:16;;;;;;;7.15;3.00;;;;;;;24.59;21.20;99650.81;10521521;27;20043;-81
2023/04/14 13:10:19;;;;;;;6.97;2.70;;;;;;;23.79;22.92;99637.31;10528501;27;20052;-80
2023/04/14 13:15:24;;;;;;;4.82;2.50;;;;;;;23.62;22.18;99626.09;10516677;27;20703;-80
2023/04/14 13:20:52;;;;;;;5.22;2.40;;;;;;;24.24;22.12;99621.31;10515013;27;20043;-80
2023/04/14 13:25:55;;;;;;;3.42;2.20;;;;;;;23.21;21.60;99614.72;10502366;27;20493;-80
2023/04/14 13:30:59;;;;;;;7.78;2.75;;;;;;;22.47;23.47;99618.28;10511251;28;20120;-80
2023/04/14 13:36:03;;;;;;;6.57;2.08;;;;;;;21.81;24.41;99612.09;10493114;27;20424;-80
2023/04/14 13:41:06;;;;;;;5.47;2.33;;;;;;;21.81;23.75;99601.16;10494625;28;20047;-80
2023/04/14 13:46:10;;;;;;;3.67;1.90;;;;;;;21.87;23.73;99597.53;10526156;27;20185;-80
2023/04/14 13:51:13;;;;;;;7.57;2.25;;;;;;;22.91;23.23;99595.38;10537844;27;20098;-80
2023/04/14 13:56:16;;;;;;;4.25;1.92;;;;;;;23.69;22.70;99595.88;10558555;27;20040;-80
2023/04/14 14:01:20;;;;;;;3.53;2.15;;;;;;;23.87;21.78;99579.44;10539529;27;20134;-80
2023/04/14 14:06:23;;;;;;;4.03;1.85;;;;;;;23.43;21.80;99584.16;10527103;28;20093;-80
2023/04/14 14:11:26;;;;;;;5.43;2.40;;;;;;;23.47;22.12;99581.78;10534442;27;20510;-81
2023/04/14 14:16:31;;;;;;;3.85;1.90;;;;;;;23.29;21.96;99580.72;10541034;27;20056;-81
2023/04/14 14:21:39;;;;;;;3.28;2.05;;;;;;;23.50;22.00;99581.31;10512484;27;20055;-80
2023/04/14 14:26:41;;;;;;;4.38;1.83;;;;;;;23.30;22.44;99582.38;10530653;27;20093;-80
2023/04/14 14:31:46;;;;;;;3.80;2.00;;;;;;;23.57;21.80;99571.13;10549804;27;20117;-80
2023/04/14 14:36:49;;;;;;;4.70;2.35;;;;;;;23.13;22.27;99573.94;10520312;27;20060;-81
2023/04/14 14:41:52;;;;;;;7.43;2.40;;;;;;;21.42;24.04;99588.47;10520304;27;20056;-81
2023/04/14 14:46:57;;;;;;;3.78;2.05;;;;;;;21.73;23.28;99574.03;10531973;28;20158;-81
2023/04/14 14:52:03;;;;;;;2.40;1.50;;;;;;;22.58;23.23;99568.31;10501609;28;20059;-81
2023/04/14 14:57:06;;;;;;;4.68;2.45;;;;;;;22.94;21.89;99559.34;10512908;27;20170;-82
2023/04/14 15:02:10;;;;;;;2.65;1.73;;;;;;;23.42;21.92;99566.03;10538226;27;20044;-82
2023/04/14 15:07:13;;;;;;;4.43;2.10;;;;;;;23.54;22.32;99563.38;10528706;27;20043;-82
2023/04/14 15:12:16;;;;;;;3.88;2.08;;;;;;;23.66;22.49;99553.28;10527867;27;20224;-82
2023/04/14 15:17:20;;;;;;;2.10;1.77;;;;;;;23.33;22.50;99557.28;10536522;27;20035;-82
2023/04/14 15:22:23;;;;;;;5.13;1.95;;;;;;;23.08;22.73;99553.75;10519854;28;20140;-81
2023/04/14 15:27:26;;;;;;;4.93;1.98;;;;;;;22.43;23.46;99549.47;10527339;27;20085;-82
2023/04/14 15:32:30;;;;;;;3.03;1.80;;;;;;;22.44;23.45;99551.16;10519389;28;20096;-82
2023/04/14 15:37:33;;;;;;;5.10;2.30;;;;;;;22.18;22.62;99551.31;10524713;27;20453;-81
2023/04/14 15:42:36;;;;;;;4.68;2.20;;;;;;;21.91;23.92;99548.72;10534968;27;20039;-82
2023/04/14 15:47:40;;;;;;;3.40;1.90;;;;;;;21.79;23.65;99545.03;10534674;27;20044;-82
2023/04/14 15:52:43;;;;;;;5.35;2.33;;;;;;;21.72;23.45;99547.78;10476166;28;20044;-83
2023/04/14 15:57:46;;;;;;;2.50;1.85;;;;;;;21.77;23.25;99547.97;10525180;27;20058;-81
2023/04/14 16:02:52;;;;;;;7.07;3.78;;;;;;;21.65;24.38;99538.75;10515673;27;20052;-81
2023/04/14 16:07:55;;;;;;;4.68;2.28;;;;;;;21.80;23.85;99539.34;10529091;27;20054;-81
2023/04/14 16:12:58;;;;;;;3.00;1.88;;;;;;;21.25;24.13;99544.34;10506298;27;20057;-82
2023/04/14 16:18:03;;;;;;;3.15;2.17;;;;;;;21.01;24.49;99534.97;10516704;27;20121;-82
2023/04/14 16:23:06;;;;;;;3.78;2.55;;;;;;;20.49;24.92;99537.53;10516925;27;20104;-83
2023/04/14 16:28:08;;;;;;;2.97;1.92;;;;;;;20.41;25.60;99531.44;10507218;27;20048;-82
2023/04/14 16:33:13;;;;;;;4.15;2.03;;;;;;;20.18;26.20;99535.34;10521191;28;20135;-83
2023/04/14 16:38:16;;;;;;;2.97;1.67;;;;;;;19.82;27.29;99538.44;10509701;27;20122;-81
2023/04/14 16:43:19;;;;;;;3.35;2.15;;;;;;;19.46;27.68;99536.81;10525953;27;20048;-83
2023/04/14 16:48:23;;;;;;;3.92;2.35;;;;;;;19.04;28.01;99535.13;10518028;28;20040;-82
2023/04/14 16:53:26;;;;;;;4.82;2.45;;;;;;;18.94;28.36;99540.94;10514648;27;20243;-82
2023/04/14 16:58:29;;;;;;;7.03;4.68;;;;;;;18.76;28.36;99544.13;10498262;28;20066;-83
2023/04/14 17:03:33;;;;;;;3.92;2.67;;;;;;;18.62;28.70;99550.50;10516314;27;20070;-81
2023/04/14 17:08:37;;;;;;;5.10;2.10;;;;;;;18.30;29.39;99555.47;10490750;27;20165;-83
2023/04/14 17:13:41;;;;;;;3.90;1.65;;;;;;;17.85;30.27;99552.03;10503893;27;20109;-83
2023/04/14 17:18:45;;;;;;;2.88;1.70;;;;;;;17.22;31.90;99566.09;10510407;27;20225;-82
2023/04/14 17:23:48;;;;;;;4.63;1.88;;;;;;;16.41;34.24;99553.31;10540670;27;20138;-81
2023/04/14 17:28:51;;;;;;;5.50;2.25;;;;;;;15.65;37.37;99567.50;10516345;27;20050;-82
2023/04/14 17:33:56;;;;;;;5.13;3.70;;;;;;;15.03;41.31;99572.81;10529664;27;20065;-81
2023/04/14 17:38:59;;;;;;;6.10;3.42;;;;;;;14.52;42.80;99581.16;10528443;27;20043;-81
2023/04/14 17:44:03;;;;;;;5.15;4.05;;;;;;;14.00;44.22;99588.69;10518005;27;20048;-81
2023/04/14 17:49:07;;;;;;;7.93;3.78;;;;;;;13.70;44.89;99602.59;10504062;27;20067;-82
2023/04/14 17:54:10;;;;;;;6.30;4.35;;;;;;;13.61;45.53;99603.59;10531089;27;20056;-81
2023/04/14 17:59:13;;;;;;;6.53;4.47;;;;;;;13.41;45.78;99611.09;10521321;27;20522;-81
2023/04/14 18:04:17;;;;;;;9.23;4.72;;;;;;;13.20;46.55;99614.16;10495265;28;20169;-81
2023/04/14 18:09:20;;;;;;;8.43;5.38;;;;;;;13.18;46.47;99623.41;10504105;27;20055;-81
2023/04/14 18:14:25;;;;;;;5.55;4.40;;;;;;;13.04;46.98;99636.47;10515397;27;20050;-81
2023/04/14 18:19:29;;;;;;;5.93;4.30;;;;;;;12.95;47.35;99623.09;10514470;27;20067;-81
2023/04/14 18:24:32;;;;;;;7.95;5.00;;;;;;;12.76;47.95;99635.75;10526611;27;20536;-81
2023/04/14 18:29:38;;;;;;;8.18;5.22;;;;;;;12.76;47.44;99632.22;10547201;27;20051;-80
2023/04/14 18:34:42;;;;;;;11.25;7.13;;;;;;;12.71;47.64;99639.94;10532421;27;20136;-81
2023/04/14 18:39:45;;;;;;;8.25;5.60;;;;;;;12.47;47.84;99643.25;10521500;27;20142;-81
2023/04/14 18:44:48;;;;;;;5.72;4.97;;;;;;;12.43;48.08;99649.97;10531391;27;20062;-81
2023/04/14 18:49:52;;;;;;;4.45;3.88;;;;;;;12.33;47.91;99661.63;10534878;27;20093;-82
2023/04/14 18:54:56;;;;;;;6.80;4.25;;;;;;;12.17;48.23;99656.06;10495666;27;20048;-81
2023/04/14 18:59:58;;;;;;;4.43;3.65;;;;;;;12.01;48.33;99663.97;10523327;27;20059;-81
2023/04/14 19:05:03;;;;;;;5.57;3.63;;;;;;;11.95;48.43;99671.63;10539485;28;20507;-82
2023/04/14 19:10:07;;;;;;;6.20;3.83;;;;;;;11.87;48.70;99676.91;10550316;27;20059;-82
2023/04/14 19:15:12;;;;;;;11.90;6.38;;;;;;;11.76;48.85;99677.13;10537896;27;20070;-81
2023/04/14 19:20:16;;;;;;;11.05;7.90;;;;;;;11.69;49.10;99687.63;10541400;27;20142;-82
2023/04/14 19:25:19;;;;;;;7.60;4.70;;;;;;;11.61;49.28;99684.00;10540711;27;20071;-82
2023/04/14 19:30:22;;;;;;;7.03;4.22;;;;;;;11.43;49.68;99681.22;10545179;27;20051;-82
2023/04/14 19:35:26;;;;;;;5.03;4.22;;;;;;;11.30;49.92;99684.25;10546171;27;20048;-82
2023/04/14 19:40:30;;;;;;;9.02;5.55;;;;;;;11.24;50.22;99680.31;10546477;27;20185;-81
2023/04/14 19:45:33;;;;;;;14.43;10.88;;;;;;;11.19;50.32;99679.91;10550107;27;20055;-81
2023/04/14 19:50:38;;;;;;;15.05;9.07;;;;;;;11.15;50.89;99681.16;10546403;27;20075;-81
2023/04/14 19:55:41;;;;;;;10.38;7.38;;;;;;;11.12;50.99;99685.97;10549825;27;20075;-81
2023/04/14 20:00:44;;;;;;;9.50;5.85;;;;;;;10.97;51.28;99685.53;10527420;27;20055;-81
2023/04/14 20:05:51;;;;;;;10.00;6.13;;;;;;;10.83;51.33;99676.97;10545237;27;20129;-81
2023/04/14 20:10:54;;;;;;;14.10;8.25;;;;;;;10.72;51.58;99677.09;10547548;27;20055;-82
2023/04/14 20:15:57;;;;;;;11.95;7.43;;;;;;;10.70;51.58;99673.72;10543774;27;20075;-82
2023/04/14 20:21:03;;;;;;;10.85;8.43;;;;;;;10.62;52.00;99684.34;10532984;27;20051;-82
2023/04/14 20:26:06;;;;;;;10.70;7.72;;;;;;;10.59;52.05;99688.16;10544201;27;20083;-82
2023/04/14 20:31:09;;;;;;;9.68;7.00;;;;;;;10.64;51.95;99689.53;10539518;27;20109;-81
2023/04/14 20:36:13;;;;;;;8.65;5.95;;;;;;;10.61;51.88;99690.66;10535317;27;21325;-81
2023/04/14 20:41:16;;;;;;;7.78;6.28;;;;;;;10.63;51.96;99687.84;10533978;27;20047;-83
2023/04/14 20:46:20;;;;;;;10.40;6.40;;;;;;;10.44;51.92;99694.91;10533547;27;20055;-81
2023/04/14 20:51:25;;;;;;;11.05;7.25;;;;;;;10.07;52.80;99695.56;10525485;27;20044;-83
2023/04/14 20:56:29;;;;;;;11.60;6.97;;;;;;;9.88;53.26;99690.16;10532943;27;20545;-82
2023/04/14 21:01:32;;;;;;;9.65;6.50;;;;;;;9.70;54.03;99693.44;10534339;27;20067;-82
2023/04/14 21:06:36;;;;;;;9.07;6.07;;;;;;;9.65;54.46;99701.06;10548638;28;20075;-82
2023/04/14 21:11:40;;;;;;;6.85;5.60;;;;;;;9.69;54.32;99698.97;10559219;28;20051;-82
2023/04/14 21:16:43;;;;;;;11.75;5.72;;;;;;;9.69;54.53;99698.97;10548925;28;20518;-83
2023/04/14 21:21:47;;;;;;;9.05;6.10;;;;;;;9.62;54.82;99703.16;10579355;22;20522;-79
2023/04/14 21:26:50;;;;;;;11.52;5.15;;;;;;;9.58;55.14;99697.22;10529389;28;20499;-78
2023/04/14 21:31:53;;;;;;;8.15;5.65;;;;;;;9.60;55.39;99702.44;10528112;28;20071;-79
2023/04/14 21:36:57;;;;;;;9.60;5.68;;;;;;;9.51;55.72;99696.88;10536902;28;20032;-78
2023/04/14 21:42:02;;;;;;;7.78;5.95;;;;;;;9.46;56.06;99699.16;10517928;28;20044;-80
2023/04/14 21:47:06;;;;;;;8.90;6.07;;;;;;;9.39;55.99;99703.34;10535228;28;20370;-78
2023/04/14 21:52:11;;;;;;;11.27;5.72;;;;;;;9.32;56.48;99707.50;10526606;28;20402;-79
2023/04/14 21:57:13;;;;;;;9.18;6.45;;;;;;;9.25;56.56;99703.69;10531075;28;20039;-79
2023/04/14 22:02:16;;;;;;;7.60;6.00;;;;;;;9.12;57.11;99695.84;10549538;28;20081;-80
2023/04/14 22:07:21;;;;;;;8.32;6.35;;;;;;;9.03;57.27;99702.84;10537991;28;20041;-74
2023/04/14 22:12:24;;;;;;;7.90;6.10;;;;;;;9.05;57.11;99710.72;10563101;28;20037;-79
2023/04/14 22:17:27;;;;;;;9.18;5.55;;;;;;;8.97;57.23;99703.38;10545398;28;20043;-78
2023/04/14 22:22:31;;;;;;;9.38;5.90;;;;;;;8.83;57.64;99706.34;10540070;28;20036;-79
2023/04/14 22:27:34;;;;;;;10.30;5.93;;;;;;;8.76;58.07;99707.88;10536193;28;20086;-78
2023/04/14 22:32:37;;;;;;;10.20;5.80;;;;;;;8.77;58.30;99707.72;10535802;28;20040;-77
2023/04/14 22:37:42;;;;;;;7.55;5.75;;;;;;;8.73;58.39;99710.81;10555439;28;20048;-78
2023/04/14 22:42:45;;;;;;;8.85;6.30;;;;;;;8.69;58.82;99720.91;10552535;28;20043;-80
2023/04/14 22:47:47;;;;;;;9.00;6.75;;;;;;;8.67;58.81;99711.31;10537708;28;20045;-78
2023/04/14 22:52:52;;;;;;;9.35;6.00;;;;;;;8.64;59.03;99714.22;10531844;28;20077;-78
2023/04/14 22:57:55;;;;;;;8.68;6.75;;;;;;;8.56;59.17;99710.38;10568705;28;20048;-76
2023/04/14 23:02:59;;;;;;;10.05;7.25;;;;;;;8.53;59.61;99718.69;10570646;28;20051;-77
2023/04/14 23:08:04;;;;;;;9.00;7.53;;;;;;;8.55;59.44;99708.66;10555802;28;20037;-78
2023/04/14 23:13:07;;;;;;;9.60;6.97;;;;;;;8.42;59.52;99712.47;10541868;28;20040;-78
2023/04/14 23:18:09;;;;;;;13.95;7.63;;;;;;;8.29;59.92;99712.66;10528831;28;20040;-80
2023/04/14 23:23:14;;;;;;;9.07;7.03;;;;;;;8.23;60.23;99719.34;10538120;28;20509;-78
2023/04/14 23:28:16;;;;;;;10.55;7.10;;;;;;;8.25;60.34;99714.69;10523015;28;20040;-77
2023/04/14 23:33:19;;;;;;;10.27;7.20;;;;;;;8.24;60.31;99717.50;10527723;28;20040;-80